CheckWX is a tool to help pilots better visualize weather data.  It is not intended as a substitute for an official pre-flight weather briefing.

15:53:27 UTC

KVIS METAR
Visalia Municipal Airport
Visalia, California, USA
Current

57 mins ago

KVIS 211456Z AUTO 13004KT 8SM CLR 07/04 A3009 RMK AO2 SLP198 T00670039 53005
Observed
Feb-21 @ 14:56 UTC
Wind
  • 130° at 4 KTS
Visibility
8 SM
Flight Rules
VFR
Cloud Levels
  • Clear skies
Temperature
C / 45°F
Dewpoint
C / 39°F
Humidity
81%
Altimeter
30.09" Hg
Pressure
1018.92 hPa
Previous

2 hours ago

KVIS 211356Z AUTO 03003KT 9SM CLR 06/04 A3007 RMK AO2 SLP191 T00610039
Observed
Feb-21 @ 13:56 UTC
Wind
  • 030° at 3 KTS
Visibility
9 SM
Flight Rules
VFR
Cloud Levels
  • Clear skies
Temperature
C / 43°F
Dewpoint
C / 39°F
Humidity
87%
Altimeter
30.07" Hg
Pressure
1018.32 hPa
Previous

3 hours ago

KVIS 211256Z AUTO 00000KT 10SM CLR 07/04 A3007 RMK AO2 SLP190 T00720039
Observed
Feb-21 @ 12:56 UTC
Visibility
10 SM
Flight Rules
VFR
Cloud Levels
  • Clear skies
Temperature
C / 45°F
Dewpoint
C / 39°F
Humidity
81%
Altimeter
30.07" Hg
Pressure
1018.32 hPa